sensor_id;sensor_type;location;lat;lon;timestamp;pressure;altitude;pressure_sealevel;temperature;humidity
13836;BME280;6988;52.614;13.500;2023-02-19T00:03:20;54779.16;;;-143.77;88.19
13836;BME280;6988;52.614;13.500;2023-02-19T00:08:12;54799.66;;;-143.77;88.28
13836;BME280;6988;52.614;13.500;2023-02-19T00:13:04;54801.72;;;-143.77;88.63
13836;BME280;6988;52.614;13.500;2023-02-19T00:17:56;54803.78;;;-143.77;88.01
13836;BME280;6988;52.614;13.500;2023-02-19T00:22:49;54811.97;;;-143.77;88.71
13836;BME280;6988;52.614;13.500;2023-02-19T00:27:40;54791.47;;;-143.77;88.46
13836;BME280;6988;52.614;13.500;2023-02-19T00:32:34;54805.81;;;-143.77;88.51
13836;BME280;6988;52.614;13.500;2023-02-19T00:37:26;54799.66;;;-143.77;88.88
13836;BME280;6988;52.614;13.500;2023-02-19T00:42:19;54795.56;;;-143.77;88.31
13836;BME280;6988;52.614;13.500;2023-02-19T00:47:11;54777.09;;;-143.77;88.48
13836;BME280;6988;52.614;13.500;2023-02-19T00:52:03;54779.16;;;-143.77;88.46
13836;BME280;6988;52.614;13.500;2023-02-19T00:56:55;54797.63;;;-143.77;88.47
13836;BME280;6988;52.614;13.500;2023-02-19T01:01:48;54801.72;;;-143.77;88.70
13836;BME280;6988;52.614;13.500;2023-02-19T01:06:41;54807.88;;;-143.77;88.70
13836;BME280;6988;52.614;13.500;2023-02-19T01:11:33;54801.72;;;-143.77;88.92
13836;BME280;6988;52.614;13.500;2023-02-19T01:16:26;54777.09;;;-143.77;89.24
13836;BME280;6988;52.614;13.500;2023-02-19T01:21:22;54809.94;;;-143.77;88.82
13836;BME280;6988;52.614;13.500;2023-02-19T01:26:18;54766.84;;;-143.77;89.06
13836;BME280;6988;52.614;13.500;2023-02-19T01:31:13;54814.03;;;-143.77;89.16
13836;BME280;6988;52.614;13.500;2023-02-19T01:36:07;54803.78;;;-143.77;89.00
13836;BME280;6988;52.614;13.500;2023-02-19T01:41:03;54793.50;;;-143.77;88.60
13836;BME280;6988;52.614;13.500;2023-02-19T01:45:55;54811.97;;;-143.77;87.96
13836;BME280;6988;52.614;13.500;2023-02-19T01:50:53;54807.88;;;-143.77;87.55
13836;BME280;6988;52.614;13.500;2023-02-19T01:55:49;54764.78;;;-143.77;87.19
13836;BME280;6988;52.614;13.500;2023-02-19T02:00:43;54799.66;;;-143.77;87.31
13836;BME280;6988;52.614;13.500;2023-02-19T02:05:44;54816.09;;;-143.77;87.19
13836;BME280;6988;52.614;13.500;2023-02-19T02:10:38;54803.78;;;-143.77;87.19
13836;BME280;6988;52.614;13.500;2023-02-19T02:15:40;54795.56;;;-143.77;86.58
13836;BME280;6988;52.614;13.500;2023-02-19T02:20:57;54834.56;;;-143.77;87.14
13836;BME280;6988;52.614;13.500;2023-02-19T02:26:01;54807.88;;;-143.77;87.56
13836;BME280;6988;52.614;13.500;2023-02-19T02:31:01;54826.34;;;-143.77;87.71
13836;BME280;6988;52.614;13.500;2023-02-19T02:36:02;54807.88;;;-143.77;87.22
13836;BME280;6988;52.614;13.500;2023-02-19T02:40:57;54803.78;;;-143.77;88.00
13836;BME280;6988;52.614;13.500;2023-02-19T02:45:49;54828.41;;;-143.77;87.66
13836;BME280;6988;52.614;13.500;2023-02-19T02:51:00;54816.09;;;-143.77;87.82
13836;BME280;6988;52.614;13.500;2023-02-19T02:56:00;54834.56;;;-143.77;87.95
13836;BME280;6988;52.614;13.500;2023-02-19T03:01:03;54811.97;;;-143.77;87.86
13836;BME280;6988;52.614;13.500;2023-02-19T03:06:18;54818.13;;;-143.77;88.19
13836;BME280;6988;52.614;13.500;2023-02-19T03:11:13;54838.66;;;-143.77;88.32
13836;BME280;6988;52.614;13.500;2023-02-19T03:16:27;54809.94;;;-143.77;88.21
13836;BME280;6988;52.614;13.500;2023-02-19T03:21:42;54805.81;;;-143.77;88.27
13836;BME280;6988;52.614;13.500;2023-02-19T03:26:38;54828.41;;;-143.77;88.35
13836;BME280;6988;52.614;13.500;2023-02-19T03:31:32;54842.75;;;-143.77;87.68
13836;BME280;6988;52.614;13.500;2023-02-19T03:36:34;54799.66;;;-143.77;87.43
13836;BME280;6988;52.614;13.500;2023-02-19T03:41:36;54820.19;;;-143.77;87.67
13836;BME280;6988;52.614;13.500;2023-02-19T03:46:42;54855.06;;;-143.77;87.47
13836;BME280;6988;52.614;13.500;2023-02-19T03:51:46;54902.28;;;-143.77;87.02
13836;BME280;6988;52.614;13.500;2023-02-19T03:56:51;54834.56;;;-143.77;86.74
13836;BME280;6988;52.614;13.500;2023-02-19T04:01:52;54824.28;;;-143.77;86.62
13836;BME280;6988;52.614;13.500;2023-02-19T04:06:52;54846.88;;;-143.77;86.56
13836;BME280;6988;52.614;13.500;2023-02-19T04:11:54;54818.13;;;-143.77;86.11
13836;BME280;6988;52.614;13.500;2023-02-19T04:16:52;54855.06;;;-143.77;86.05
13836;BME280;6988;52.614;13.500;2023-02-19T04:21:49;54879.69;;;-143.77;86.55
13836;BME280;6988;52.614;13.500;2023-02-19T04:26:45;54842.75;;;-143.77;86.49
13836;BME280;6988;52.614;13.500;2023-02-19T04:31:39;54881.75;;;-143.77;86.94
13836;BME280;6988;52.614;13.500;2023-02-19T04:36:31;54855.06;;;-143.77;87.02
13836;BME280;6988;52.614;13.500;2023-02-19T04:41:24;54889.97;;;-143.77;86.36
13836;BME280;6988;52.614;13.500;2023-02-19T04:46:16;54869.44;;;-143.77;86.39
13836;BME280;6988;52.614;13.500;2023-02-19T04:51:09;54844.81;;;-143.77;86.75
13836;BME280;6988;52.614;13.500;2023-02-19T04:56:06;54869.44;;;-143.77;86.84
13836;BME280;6988;52.614;13.500;2023-02-19T05:00:59;54877.66;;;-143.77;86.91
13836;BME280;6988;52.614;13.500;2023-02-19T05:05:50;54869.44;;;-143.77;86.74
13836;BME280;6988;52.614;13.500;2023-02-19T05:10:44;54838.66;;;-143.77;86.75
13836;BME280;6988;52.614;13.500;2023-02-19T05:15:36;54848.91;;;-143.77;86.87
13836;BME280;6988;52.614;13.500;2023-02-19T05:20:27;54887.91;;;-143.77;87.10
13836;BME280;6988;52.614;13.500;2023-02-19T05:25:20;54871.50;;;-143.77;87.15
13836;BME280;6988;52.614;13.500;2023-02-19T05:30:13;54846.88;;;-143.77;87.80
13836;BME280;6988;52.614;13.500;2023-02-19T05:35:06;54850.97;;;-143.77;87.84
13836;BME280;6988;52.614;13.500;2023-02-19T05:39:57;54904.31;;;-143.77;88.24
13836;BME280;6988;52.614;13.500;2023-02-19T05:44:49;54877.66;;;-143.77;88.08
13836;BME280;6988;52.614;13.500;2023-02-19T05:49:42;54861.22;;;-143.77;88.12
13836;BME280;6988;52.614;13.500;2023-02-19T05:54:34;54865.34;;;-143.77;88.21
13836;BME280;6988;52.614;13.500;2023-02-19T05:59:26;54836.59;;;-143.77;88.13
13836;BME280;6988;52.614;13.500;2023-02-19T06:04:20;54861.22;;;-143.77;88.05
13836;BME280;6988;52.614;13.500;2023-02-19T06:09:14;54869.44;;;-143.77;87.83
13836;BME280;6988;52.614;13.500;2023-02-19T06:14:06;54867.38;;;-143.77;87.47
13836;BME280;6988;52.614;13.500;2023-02-19T06:18:58;54871.50;;;-143.77;87.14
13836;BME280;6988;52.614;13.500;2023-02-19T06:23:55;54889.97;;;-143.77;87.25
13836;BME280;6988;52.614;13.500;2023-02-19T06:28:51;54877.66;;;-143.77;87.07
13836;BME280;6988;52.614;13.500;2023-02-19T06:33:43;54861.22;;;-143.77;87.51
13836;BME280;6988;52.614;13.500;2023-02-19T06:38:35;54898.16;;;-143.77;87.58
13836;BME280;6988;52.614;13.500;2023-02-19T06:43:27;54885.84;;;-143.77;88.00
13836;BME280;6988;52.614;13.500;2023-02-19T06:48:20;54848.91;;;-143.77;87.64
13836;BME280;6988;52.614;13.500;2023-02-19T06:53:12;54885.84;;;-143.77;87.25
13836;BME280;6988;52.614;13.500;2023-02-19T06:58:04;54846.88;;;-143.77;87.24
13836;BME280;6988;52.614;13.500;2023-02-19T07:02:55;54865.34;;;-143.77;87.21
13836;BME280;6988;52.614;13.500;2023-02-19T07:07:49;54861.22;;;-143.77;87.57
13836;BME280;6988;52.614;13.500;2023-02-19T07:12:41;54881.75;;;-143.77;87.81
13836;BME280;6988;52.614;13.500;2023-02-19T07:17:34;54869.44;;;-143.77;88.32
13836;BME280;6988;52.614;13.500;2023-02-19T07:22:26;54863.28;;;-143.77;88.10
13836;BME280;6988;52.614;13.500;2023-02-19T07:27:19;54855.06;;;-143.77;87.90
13836;BME280;6988;52.614;13.500;2023-02-19T07:32:11;54844.81;;;-143.77;88.09
13836;BME280;6988;52.614;13.500;2023-02-19T07:37:03;54824.28;;;-143.77;87.32
13836;BME280;6988;52.614;13.500;2023-02-19T07:41:56;54853.03;;;-143.77;87.58
13836;BME280;6988;52.614;13.500;2023-02-19T07:46:53;54828.41;;;-143.77;87.30
13836;BME280;6988;52.614;13.500;2023-02-19T07:51:44;54844.81;;;-143.77;87.16
13836;BME280;6988;52.614;13.500;2023-02-19T07:56:36;54842.75;;;-143.77;86.84
13836;BME280;6988;52.614;13.500;2023-02-19T08:01:28;54830.44;;;-143.77;86.01
13836;BME280;6988;52.614;13.500;2023-02-19T08:06:35;54809.94;;;-143.77;85.90
13836;BME280;6988;52.614;13.500;2023-02-19T08:11:27;54832.50;;;-143.77;85.89
13836;BME280;6988;52.614;13.500;2023-02-19T08:16:36;54805.81;;;-143.77;86.09
13836;BME280;6988;52.614;13.500;2023-02-19T08:21:28;54779.16;;;-143.77;84.97
13836;BME280;6988;52.614;13.500;2023-02-19T08:26:21;54803.78;;;-143.77;84.16
13836;BME280;6988;52.614;13.500;2023-02-19T08:31:13;54789.41;;;-143.77;83.69
13836;BME280;6988;52.614;13.500;2023-02-19T08:36:09;54762.72;;;-143.77;83.48
13836;BME280;6988;52.614;13.500;2023-02-19T08:41:04;54791.47;;;-143.77;83.89
13836;BME280;6988;52.614;13.500;2023-02-19T08:45:58;54729.91;;;-143.77;82.81
13836;BME280;6988;52.614;13.500;2023-02-19T08:50:55;54748.38;;;-143.77;81.90
13836;BME280;6988;52.614;13.500;2023-02-19T08:55:47;54762.72;;;-143.77;80.80
13836;BME280;6988;52.614;13.500;2023-02-19T09:00:38;54758.63;;;-143.77;78.95
13836;BME280;6988;52.614;13.500;2023-02-19T09:05:32;54758.63;;;-143.77;78.37
13836;BME280;6988;52.614;13.500;2023-02-19T09:10:24;54768.88;;;-143.77;77.91
13836;BME280;6988;52.614;13.500;2023-02-19T09:15:16;54766.84;;;-143.77;78.12
13836;BME280;6988;52.614;13.500;2023-02-19T09:20:08;54785.31;;;-143.77;78.24
13836;BME280;6988;52.614;13.500;2023-02-19T09:25:02;54773.00;;;-143.77;78.74
13836;BME280;6988;52.614;13.500;2023-02-19T09:29:54;54803.78;;;-143.77;78.08
13836;BME280;6988;52.614;13.500;2023-02-19T09:34:46;54760.69;;;-143.77;78.31
13836;BME280;6988;52.614;13.500;2023-02-19T09:39:38;54783.25;;;-143.77;78.19
13836;BME280;6988;52.614;13.500;2023-02-19T09:44:34;54766.84;;;-143.77;77.56
13836;BME280;6988;52.614;13.500;2023-02-19T09:49:32;54754.53;;;-143.77;77.46
13836;BME280;6988;52.614;13.500;2023-02-19T09:54:27;54736.06;;;-143.77;76.25
13836;BME280;6988;52.614;13.500;2023-02-19T09:59:23;54740.16;;;-143.77;74.89
13836;BME280;6988;52.614;13.500;2023-02-19T10:04:17;54797.63;;;-143.77;74.82
13836;BME280;6988;52.614;13.500;2023-02-19T10:09:20;54740.16;;;-143.77;74.47
13836;BME280;6988;52.614;13.500;2023-02-19T10:14:16;54727.84;;;-143.77;74.44
13836;BME280;6988;52.614;13.500;2023-02-19T10:19:10;54758.63;;;-143.77;73.74
13836;BME280;6988;52.614;13.500;2023-02-19T10:24:06;54752.47;;;-143.77;72.97
13836;BME280;6988;52.614;13.500;2023-02-19T10:28:58;54738.09;;;-143.77;72.39
13836;BME280;6988;52.614;13.500;2023-02-19T10:33:53;54803.78;;;-143.77;73.18
13836;BME280;6988;52.614;13.500;2023-02-19T10:38:47;54738.09;;;-143.77;73.79
13836;BME280;6988;52.614;13.500;2023-02-19T10:43:50;54758.63;;;-143.77;73.31
13836;BME280;6988;52.614;13.500;2023-02-19T10:48:49;54762.72;;;-143.77;71.54
13836;BME280;6988;52.614;13.500;2023-02-19T10:53:46;54746.31;;;-143.77;72.02
13836;BME280;6988;52.614;13.500;2023-02-19T10:58:42;54762.72;;;-143.77;71.35
13836;BME280;6988;52.614;13.500;2023-02-19T11:03:37;54738.09;;;-143.77;72.19
13836;BME280;6988;52.614;13.500;2023-02-19T11:08:30;54725.78;;;-143.77;70.41
13836;BME280;6988;52.614;13.500;2023-02-19T11:13:28;54692.97;;;-143.77;69.85
13836;BME280;6988;52.614;13.500;2023-02-19T11:18:26;54713.47;;;-143.77;67.22
13836;BME280;6988;52.614;13.500;2023-02-19T11:23:24;54770.94;;;-143.77;67.34
13836;BME280;6988;52.614;13.500;2023-02-19T11:28:28;54719.63;;;-143.77;66.34
13836;BME280;6988;52.614;13.500;2023-02-19T11:33:25;54734.00;;;-143.77;66.45
13836;BME280;6988;52.614;13.500;2023-02-19T11:38:18;54719.63;;;-143.77;67.36
13836;BME280;6988;52.614;13.500;2023-02-19T11:43:39;54656.03;;;-143.77;67.72
13836;BME280;6988;52.614;13.500;2023-02-19T11:48:54;54705.28;;;-143.77;65.15
13836;BME280;6988;52.614;13.500;2023-02-19T11:54:05;54674.50;;;-143.77;60.84
13836;BME280;6988;52.614;13.500;2023-02-19T11:59:03;54647.81;;;-143.77;62.49
13836;BME280;6988;52.614;13.500;2023-02-19T12:09:49;54647.81;;;-143.77;63.91
13836;BME280;6988;52.614;13.500;2023-02-19T12:14:57;54623.19;;;-143.77;62.78
13836;BME280;6988;52.614;13.500;2023-02-19T12:20:09;54662.19;;;-143.77;59.69
13836;BME280;6988;52.614;13.500;2023-02-19T12:25:41;54635.50;;;-143.77;58.10
13836;BME280;6988;52.614;13.500;2023-02-19T12:31:21;54672.44;;;-143.77;58.01
13836;BME280;6988;52.614;13.500;2023-02-19T12:36:26;54635.50;;;-143.77;59.13
13836;BME280;6988;52.614;13.500;2023-02-19T12:41:39;54649.88;;;-143.77;57.07
13836;BME280;6988;52.614;13.500;2023-02-19T12:46:37;54656.03;;;-143.77;57.83
13836;BME280;6988;52.614;13.500;2023-02-19T12:51:39;54697.06;;;-143.77;56.85
13836;BME280;6988;52.614;13.500;2023-02-19T12:56:38;54684.75;;;-143.77;59.28
13836;BME280;6988;52.614;13.500;2023-02-19T13:01:41;54680.66;;;-143.77;60.18
13836;BME280;6988;52.614;13.500;2023-02-19T13:06:42;54656.03;;;-143.77;60.38
13836;BME280;6988;52.614;13.500;2023-02-19T13:11:42;54641.66;;;-143.77;59.85
13836;BME280;6988;52.614;13.500;2023-02-19T13:16:42;54602.66;;;-143.77;57.95
13836;BME280;6988;52.614;13.500;2023-02-19T13:21:38;54578.03;;;-143.77;54.31
13836;BME280;6988;52.614;13.500;2023-02-19T13:27:19;54553.41;;;-143.77;54.06
13836;BME280;6988;52.614;13.500;2023-02-19T13:32:39;54532.91;;;-143.77;52.83
13836;BME280;6988;52.614;13.500;2023-02-19T13:37:37;54534.94;;;-143.77;52.55
13836;BME280;6988;52.614;13.500;2023-02-19T13:42:33;54545.22;;;-143.77;51.62
13836;BME280;6988;52.614;13.500;2023-02-19T13:47:58;54567.78;;;-143.77;53.03
13836;BME280;6988;52.614;13.500;2023-02-19T13:52:52;54578.03;;;-143.77;51.32
13836;BME280;6988;52.614;13.500;2023-02-19T13:57:44;54594.47;;;-143.77;50.50
13836;BME280;6988;52.614;13.500;2023-02-19T14:02:36;54619.09;;;-143.77;50.54
13836;BME280;6988;52.614;13.500;2023-02-19T14:07:53;54606.78;;;-143.77;50.18
13836;BME280;6988;52.614;13.500;2023-02-19T14:12:45;54592.41;;;-143.77;50.93
13836;BME280;6988;52.614;13.500;2023-02-19T14:17:41;54623.19;;;-143.77;49.92
13836;BME280;6988;52.614;13.500;2023-02-19T14:23:15;54612.94;;;-143.77;50.57
13836;BME280;6988;52.614;13.500;2023-02-19T14:28:33;54604.72;;;-143.77;50.45
13836;BME280;6988;52.614;13.500;2023-02-19T14:33:29;54614.97;;;-143.77;49.13
13836;BME280;6988;52.614;13.500;2023-02-19T14:38:28;54590.34;;;-143.77;49.66
13836;BME280;6988;52.614;13.500;2023-02-19T14:43:24;54565.72;;;-143.77;50.08
13836;BME280;6988;52.614;13.500;2023-02-19T14:48:21;54608.81;;;-143.77;48.91
13836;BME280;6988;52.614;13.500;2023-02-19T14:53:16;54614.97;;;-143.77;49.33
13836;BME280;6988;52.614;13.500;2023-02-19T14:58:14;54637.56;;;-143.77;50.46
13836;BME280;6988;52.614;13.500;2023-02-19T15:03:26;54647.81;;;-143.77;49.87
13836;BME280;6988;52.614;13.500;2023-02-19T15:08:26;54637.56;;;-143.77;47.53
13836;BME280;6988;52.614;13.500;2023-02-19T15:13:26;54664.22;;;-143.77;48.03
13836;BME280;6988;52.614;13.500;2023-02-19T15:18:21;54713.47;;;-143.77;47.74
13836;BME280;6988;52.614;13.500;2023-02-19T15:23:21;54676.53;;;-143.77;49.40
13836;BME280;6988;52.614;13.500;2023-02-19T15:28:32;54668.34;;;-143.77;48.62
13836;BME280;6988;52.614;13.500;2023-02-19T15:33:26;54703.22;;;-143.77;48.19
13836;BME280;6988;52.614;13.500;2023-02-19T15:38:19;54752.47;;;-143.77;50.25
13836;BME280;6988;52.614;13.500;2023-02-19T15:43:21;54734.00;;;-143.77;50.64
13836;BME280;6988;52.614;13.500;2023-02-19T15:48:21;54734.00;;;-143.77;49.42
13836;BME280;6988;52.614;13.500;2023-02-19T15:53:20;54768.88;;;-143.77;51.05
13836;BME280;6988;52.614;13.500;2023-02-19T15:58:19;54725.78;;;-143.77;49.23
13836;BME280;6988;52.614;13.500;2023-02-19T16:03:19;54762.72;;;-143.77;50.72
13836;BME280;6988;52.614;13.500;2023-02-19T16:08:18;54705.28;;;-143.77;51.95
13836;BME280;6988;52.614;13.500;2023-02-19T16:13:10;54762.72;;;-143.77;52.74
13836;BME280;6988;52.614;13.500;2023-02-19T16:18:03;54795.56;;;-143.77;54.56
13836;BME280;6988;52.614;13.500;2023-02-19T16:23:01;54793.50;;;-143.77;55.43
13836;BME280;6988;52.614;13.500;2023-02-19T16:27:54;54779.16;;;-143.77;55.71
13836;BME280;6988;52.614;13.500;2023-02-19T16:32:46;54809.94;;;-143.77;56.67
13836;BME280;6988;52.614;13.500;2023-02-19T16:37:40;54799.66;;;-143.77;58.23
13836;BME280;6988;52.614;13.500;2023-02-19T16:43:24;54773.00;;;-143.77;58.19
13836;BME280;6988;52.614;13.500;2023-02-19T16:48:20;54799.66;;;-143.77;59.04
13836;BME280;6988;52.614;13.500;2023-02-19T16:53:18;54789.41;;;-143.77;58.75
13836;BME280;6988;52.614;13.500;2023-02-19T16:58:10;54799.66;;;-143.77;58.76
13836;BME280;6988;52.614;13.500;2023-02-19T17:03:08;54797.63;;;-143.77;58.78
13836;BME280;6988;52.614;13.500;2023-02-19T17:08:07;54799.66;;;-143.77;59.36
13836;BME280;6988;52.614;13.500;2023-02-19T17:13:03;54828.41;;;-143.77;60.12
13836;BME280;6988;52.614;13.500;2023-02-19T17:17:55;54824.28;;;-143.77;59.55
13836;BME280;6988;52.614;13.500;2023-02-19T17:22:49;54846.88;;;-143.77;58.74
13836;BME280;6988;52.614;13.500;2023-02-19T17:27:41;54840.72;;;-143.77;59.11
13836;BME280;6988;52.614;13.500;2023-02-19T17:32:32;54805.81;;;-143.77;59.94
13836;BME280;6988;52.614;13.500;2023-02-19T17:37:24;54855.06;;;-143.77;60.52
13836;BME280;6988;52.614;13.500;2023-02-19T17:42:17;54842.75;;;-143.77;61.23
13836;BME280;6988;52.614;13.500;2023-02-19T17:47:09;54842.75;;;-143.77;61.62
13836;BME280;6988;52.614;13.500;2023-02-19T17:52:01;54832.50;;;-143.77;63.17
13836;BME280;6988;52.614;13.500;2023-02-19T17:56:54;54867.38;;;-143.77;64.14
13836;BME280;6988;52.614;13.500;2023-02-19T18:01:47;54824.28;;;-143.77;64.69
13836;BME280;6988;52.614;13.500;2023-02-19T18:06:38;54857.13;;;-143.77;64.89
13836;BME280;6988;52.614;13.500;2023-02-19T18:11:32;54842.75;;;-143.77;64.38
13836;BME280;6988;52.614;13.500;2023-02-19T18:16:23;54879.69;;;-143.77;64.60
13836;BME280;6988;52.614;13.500;2023-02-19T18:21:17;54850.97;;;-143.77;65.03
13836;BME280;6988;52.614;13.500;2023-02-19T18:26:10;54848.91;;;-143.77;65.61
13836;BME280;6988;52.614;13.500;2023-02-19T18:31:03;54885.84;;;-143.77;66.03
13836;BME280;6988;52.614;13.500;2023-02-19T18:35:55;54863.28;;;-143.77;66.51
13836;BME280;6988;52.614;13.500;2023-02-19T18:40:48;54877.66;;;-143.77;66.47
13836;BME280;6988;52.614;13.500;2023-02-19T18:45:40;54894.06;;;-143.77;66.43
13836;BME280;6988;52.614;13.500;2023-02-19T18:50:32;54861.22;;;-143.77;66.67
13836;BME280;6988;52.614;13.500;2023-02-19T18:55:24;54832.50;;;-143.77;66.84
13836;BME280;6988;52.614;13.500;2023-02-19T19:00:22;54902.28;;;-143.77;66.90
13836;BME280;6988;52.614;13.500;2023-02-19T19:05:17;54883.81;;;-143.77;67.11
13836;BME280;6988;52.614;13.500;2023-02-19T19:10:12;54861.22;;;-143.77;67.70
13836;BME280;6988;52.614;13.500;2023-02-19T19:15:04;54883.81;;;-143.77;67.62
13836;BME280;6988;52.614;13.500;2023-02-19T19:19:57;54894.06;;;-143.77;67.32
13836;BME280;6988;52.614;13.500;2023-02-19T19:24:49;54885.84;;;-143.77;67.76
13836;BME280;6988;52.614;13.500;2023-02-19T19:36:19;54869.44;;;-143.77;67.88
13836;BME280;6988;52.614;13.500;2023-02-19T19:41:16;54902.28;;;-143.77;68.16
13836;BME280;6988;52.614;13.500;2023-02-19T19:46:08;54879.69;;;-143.77;68.23
13836;BME280;6988;52.614;13.500;2023-02-19T19:51:00;54840.72;;;-143.77;68.44
13836;BME280;6988;52.614;13.500;2023-02-19T19:55:54;54838.66;;;-143.77;68.94
13836;BME280;6988;52.614;13.500;2023-02-19T20:00:45;54848.91;;;-143.77;69.00
13836;BME280;6988;52.614;13.500;2023-02-19T20:05:37;54894.06;;;-143.77;69.06
13836;BME280;6988;52.614;13.500;2023-02-19T20:10:29;54885.84;;;-143.77;69.33
13836;BME280;6988;52.614;13.500;2023-02-19T20:15:23;54881.75;;;-143.77;69.33
13836;BME280;6988;52.614;13.500;2023-02-19T20:20:18;54898.16;;;-143.77;69.55
13836;BME280;6988;52.614;13.500;2023-02-19T20:25:12;54859.19;;;-143.77;69.56
13836;BME280;6988;52.614;13.500;2023-02-19T20:30:08;54871.50;;;-143.77;69.59
13836;BME280;6988;52.614;13.500;2023-02-19T20:35:01;54871.50;;;-143.77;70.00
13836;BME280;6988;52.614;13.500;2023-02-19T20:39:53;54869.44;;;-143.77;69.85
13836;BME280;6988;52.614;13.500;2023-02-19T20:44:45;54844.81;;;-143.77;69.87
13836;BME280;6988;52.614;13.500;2023-02-19T20:49:37;54865.34;;;-143.77;70.03
13836;BME280;6988;52.614;13.500;2023-02-19T20:54:33;54885.84;;;-143.77;70.49
13836;BME280;6988;52.614;13.500;2023-02-19T20:59:28;54902.28;;;-143.77;70.45
13836;BME280;6988;52.614;13.500;2023-02-19T21:04:24;54904.31;;;-143.77;70.47
13836;BME280;6988;52.614;13.500;2023-02-19T21:09:16;54912.53;;;-143.77;70.40
13836;BME280;6988;52.614;13.500;2023-02-19T21:14:09;54902.28;;;-143.77;70.82
13836;BME280;6988;52.614;13.500;2023-02-19T21:19:01;54857.13;;;-143.77;70.68
13836;BME280;6988;52.614;13.500;2023-02-19T21:23:54;54885.84;;;-143.77;70.75
13836;BME280;6988;52.614;13.500;2023-02-19T21:28:49;54857.13;;;-143.77;71.16
13836;BME280;6988;52.614;13.500;2023-02-19T21:33:42;54881.75;;;-143.77;71.26
13836;BME280;6988;52.614;13.500;2023-02-19T21:38:34;54879.69;;;-143.77;71.33
13836;BME280;6988;52.614;13.500;2023-02-19T21:43:27;54898.16;;;-143.77;71.42
13836;BME280;6988;52.614;13.500;2023-02-19T21:48:19;54904.31;;;-143.77;71.71
13836;BME280;6988;52.614;13.500;2023-02-19T21:53:13;54877.66;;;-143.77;71.70
13836;BME280;6988;52.614;13.500;2023-02-19T21:58:05;54898.16;;;-143.77;71.87
13836;BME280;6988;52.614;13.500;2023-02-19T22:02:57;54894.06;;;-143.77;72.30
13836;BME280;6988;52.614;13.500;2023-02-19T22:07:49;54869.44;;;-143.77;72.05
13836;BME280;6988;52.614;13.500;2023-02-19T22:12:44;54844.81;;;-143.77;72.33
13836;BME280;6988;52.614;13.500;2023-02-19T22:17:36;54869.44;;;-143.77;72.17
13836;BME280;6988;52.614;13.500;2023-02-19T22:22:27;54863.28;;;-143.77;72.05
13836;BME280;6988;52.614;13.500;2023-02-19T22:27:19;54873.53;;;-143.77;72.42
13836;BME280;6988;52.614;13.500;2023-02-19T22:32:12;54861.22;;;-143.77;72.60
13836;BME280;6988;52.614;13.500;2023-02-19T22:37:04;54861.22;;;-143.77;72.76
13836;BME280;6988;52.614;13.500;2023-02-19T22:41:56;54894.06;;;-143.77;72.90
13836;BME280;6988;52.614;13.500;2023-02-19T23:04:38;54896.13;;;-143.77;75.19
13836;BME280;6988;52.614;13.500;2023-02-19T23:09:30;54881.75;;;-143.77;75.17
13836;BME280;6988;52.614;13.500;2023-02-19T23:14:22;54869.44;;;-143.77;75.20
13836;BME280;6988;52.614;13.500;2023-02-19T23:19:14;54912.53;;;-143.77;75.26
13836;BME280;6988;52.614;13.500;2023-02-19T23:24:08;54910.47;;;-143.77;75.57
13836;BME280;6988;52.614;13.500;2023-02-19T23:29:01;54910.47;;;-143.77;75.84
13836;BME280;6988;52.614;13.500;2023-02-19T23:33:54;54894.06;;;-143.77;75.88
13836;BME280;6988;52.614;13.500;2023-02-19T23:38:46;54853.03;;;-143.77;75.85
13836;BME280;6988;52.614;13.500;2023-02-19T23:43:39;54865.34;;;-143.77;76.19
13836;BME280;6988;52.614;13.500;2023-02-19T23:48:31;54881.75;;;-143.77;76.19
13836;BME280;6988;52.614;13.500;2023-02-19T23:53:23;54881.75;;;-143.77;76.25
13836;BME280;6988;52.614;13.500;2023-02-19T23:58:17;54914.59;;;-143.77;76.23
